Time;durP1;ratioP1;P1;durP2;ratioP2;P2;SDS_P1;SDS_P2;PMS_P1;PMS_P2;Temp;Humidity;BMP_temperature;BMP_pressure;BME280_temperature;BME280_humidity;BME280_pressure;Samples;Min_cycle;Max_cycle;Signal;HPM_P1;HPM_P2
2021/01/13 00:00:48;;;;;;;16.03;5.17;;;;;;;;;;5091385;28;20505;-62
2021/01/13 00:03:13;;;;;;;20.23;5.60;;;;;;;;;;5090715;28;20044;-63
2021/01/13 00:05:40;;;;;;;16.93;3.77;;;;;;;;;;5091209;28;20028;-62
2021/01/13 00:08:05;;;;;;;;;;;;;;;;;;5093232;28;20110;-63
2021/01/13 00:10:30;;;;;;;18.83;3.50;;;;;;;;;;5095520;28;20070;-63
2021/01/13 00:12:56;;;;;;;20.13;3.97;;;;;;;;;;5094921;28;20070;-58
2021/01/13 00:15:21;;;;;;;16.03;3.87;;;;;;;;;;5095637;28;20016;-63
2021/01/13 00:17:47;;;;;;;27.10;4.45;;;;;;;;;;5095398;28;20388;-63
2021/01/13 00:20:13;;;;;;;24.73;5.93;;;;;;;;;;5094237;28;20036;-63
2021/01/13 00:22:38;;;;;;;24.87;6.83;;;;;;;;;;5095429;28;20122;-63
2021/01/13 00:25:04;;;;;;;20.53;5.57;;;;;;;;;;5076460;28;20081;-63
2021/01/13 00:27:32;;;;;;;19.63;4.90;;;;;;;;;;5077052;28;20057;-63
2021/01/13 00:29:57;;;;;;;27.38;6.22;;;;;;;;;;5094601;28;20127;-57
2021/01/13 00:32:22;;;;;;;37.07;7.30;;;;;;;;;;5076876;28;20130;-63
2021/01/13 00:34:48;;;;;;;30.67;5.67;;;;;;;;;;5095056;28;20032;-62
2021/01/13 00:37:14;;;;;;;28.00;6.27;;;;;;;;;;5094538;28;20445;-63
2021/01/13 00:39:39;;;;;;;25.77;5.88;;;;;;;;;;5095085;28;20036;-64
2021/01/13 00:42:04;;;;;;;34.93;8.63;;;;;;;;;;5094079;28;20024;-63
2021/01/13 00:44:30;;;;;;;41.07;9.30;;;;;;;;;;5094711;28;20008;-63
2021/01/13 00:46:55;;;;;;;45.57;12.03;;;;;;;;;;5094967;28;20025;-63
2021/01/13 00:49:21;;;;;;;56.70;15.07;;;;;;;;;;5094275;28;20491;-63
2021/01/13 00:51:46;;;;;;;79.30;18.37;;;;;;;;;;5094874;28;20056;-63
2021/01/13 00:54:12;;;;;;;76.10;17.00;;;;;;;;;;5094020;28;20020;-63
2021/01/13 00:56:38;;;;;;;56.15;12.05;;;;;;;;;;5094574;28;20464;-63
2021/01/13 00:59:03;;;;;;;57.17;12.80;;;;;;;;;;5093717;28;20494;-62
2021/01/13 01:01:29;;;;;;;94.87;21.43;;;;;;;;;;5076185;28;20062;-61
2021/01/13 01:03:57;;;;;;;77.15;18.58;;;;;;;;;;5094351;28;20028;-63
2021/01/13 01:06:23;;;;;;;80.97;18.13;;;;;;;;;;5093753;28;20041;-62
2021/01/13 01:08:49;;;;;;;76.63;19.35;;;;;;;;;;5094333;28;20035;-63
2021/01/13 01:11:18;;;;;;;71.32;17.02;;;;;;;;;;5075428;28;20031;-63
2021/01/13 01:13:43;;;;;;;77.38;18.50;;;;;;;;;;5059314;28;20070;-64
2021/01/13 01:16:09;;;;;;;96.67;22.07;;;;;;;;;;5093566;28;20460;-63
2021/01/13 01:18:34;;;;;;;24.27;5.23;;;;;;;;;;5075350;28;20464;-63
2021/01/13 01:21:00;;;;;;;18.37;2.57;;;;;;;;;;5075396;28;20027;-63
2021/01/13 01:23:25;;;;;;;11.37;2.43;;;;;;;;;;5075429;28;20034;-63
2021/01/13 01:25:50;;;;;;;11.97;3.10;;;;;;;;;;5094019;28;20383;-63
2021/01/13 01:28:16;;;;;;;23.47;3.27;;;;;;;;;;5075034;28;20067;-63
2021/01/13 01:30:41;;;;;;;17.27;3.63;;;;;;;;;;5071036;28;20032;-63
2021/01/13 01:33:06;;;;;;;22.83;3.37;;;;;;;;;;5093246;28;20452;-63
2021/01/13 01:35:32;;;;;;;13.30;2.53;;;;;;;;;;5058991;28;20024;-63
2021/01/13 01:37:57;;;;;;;14.70;2.47;;;;;;;;;;5093741;28;20027;-64
2021/01/13 01:40:22;;;;;;;23.33;4.77;;;;;;;;;;5092800;28;20345;-63
2021/01/13 01:42:49;;;;;;;10.80;3.10;;;;;;;;;;5093729;28;20345;-64
2021/01/13 01:45:16;;;;;;;18.33;4.45;;;;;;;;;;5093107;28;20036;-63
2021/01/13 01:47:41;;;;;;;;;;;;;;;;;;5094036;28;20012;-63
2021/01/13 01:50:07;;;;;;;14.20;4.23;;;;;;;;;;5092830;28;20261;-64
2021/01/13 01:52:32;;;;;;;21.35;5.20;;;;;;;;;;5093987;28;20478;-64
2021/01/13 01:55:02;;;;;;;43.75;9.95;;;;;;;;;;5093545;28;20517;-63
2021/01/13 01:57:33;;;;;;;24.50;5.50;;;;;;;;;;5092716;28;20036;-63
2021/01/13 02:00:03;;;;;;;35.63;7.40;;;;;;;;;;5093131;28;20036;-64
2021/01/13 02:02:39;;;;;;;27.55;7.45;;;;;;;;;;5093037;28;20036;-63
2021/01/13 02:05:06;;;;;;;21.98;5.07;;;;;;;;;;5093212;28;20034;-63
2021/01/13 02:07:32;;;;;;;23.15;5.05;;;;;;;;;;5074792;28;20053;-62
2021/01/13 02:09:58;;;;;;;17.25;3.45;;;;;;;;;;5075060;28;20028;-64
2021/01/13 02:12:31;;;;;;;9.98;2.28;;;;;;;;;;5092528;28;20437;-62
2021/01/13 02:14:57;;;;;;;15.48;3.08;;;;;;;;;;5093405;28;20119;-63
2021/01/13 02:17:28;;;;;;;26.13;5.32;;;;;;;;;;5092229;28;20119;-62
2021/01/13 02:20:03;;;;;;;42.38;8.77;;;;;;;;;;5074825;28;20036;-62
2021/01/13 02:22:35;;;;;;;22.15;5.15;;;;;;;;;;5092323;28;20047;-62
2021/01/13 02:25:13;;;;;;;18.00;5.03;;;;;;;;;;5074565;28;20028;-63
2021/01/13 02:27:44;;;;;;;16.75;3.30;;;;;;;;;;5092883;28;20043;-62
2021/01/13 02:30:11;;;;;;;17.17;4.10;;;;;;;;;;5073332;28;20036;-61
2021/01/13 02:32:40;;;;;;;25.75;4.75;;;;;;;;;;5092459;28;20052;-62
2021/01/13 02:35:25;;;;;;;44.72;9.48;;;;;;;;;;5092341;28;20047;-64
2021/01/13 02:38:18;;;;;;;69.03;14.68;;;;;;;;;;5074396;28;20078;-62
2021/01/13 02:40:47;;;;;;;54.25;13.27;;;;;;;;;;5088899;28;20051;-62
2021/01/13 02:43:13;;;;;;;59.85;14.27;;;;;;;;;;5091631;28;20476;-64
2021/01/13 02:45:40;;;;;;;47.08;11.70;;;;;;;;;;5074105;28;20443;-63
2021/01/13 02:48:09;;;;;;;44.25;10.65;;;;;;;;;;5092158;28;20107;-63
2021/01/13 02:50:38;;;;;;;52.15;12.27;;;;;;;;;;5092124;28;20370;-63
2021/01/13 02:53:07;;;;;;;46.10;11.80;;;;;;;;;;5092431;28;20075;-64
2021/01/13 02:55:35;;;;;;;55.60;11.68;;;;;;;;;;5091618;28;20173;-63
2021/01/13 02:58:04;;;;;;;44.55;11.68;;;;;;;;;;5091981;28;20111;-63
2021/01/13 03:00:29;;;;;;;39.80;9.90;;;;;;;;;;5091498;28;20039;-63
2021/01/13 03:02:55;;;;;;;47.90;11.20;;;;;;;;;;5073845;28;20039;-64
2021/01/13 03:05:20;;;;;;;32.27;8.13;;;;;;;;;;5091576;28;20024;-63
2021/01/13 03:07:49;;;;;;;15.87;3.77;;;;;;;;;;5073837;28;20468;-63
2021/01/13 03:10:18;;;;;;;14.32;4.45;;;;;;;;;;5091218;28;20035;-63
2021/01/13 03:12:47;;;;;;;10.52;2.55;;;;;;;;;;5091734;28;20111;-63
2021/01/13 03:15:13;;;;;;;12.18;1.98;;;;;;;;;;5091343;28;20457;-58
2021/01/13 03:17:41;;;;;;;6.37;1.60;;;;;;;;;;5091929;28;20038;-63
2021/01/13 03:20:09;;;;;;;10.75;2.20;;;;;;;;;;5091708;28;20157;-63
2021/01/13 03:22:50;;;;;;;13.07;2.67;;;;;;;;;;5090887;28;20083;-63
2021/01/13 03:25:17;;;;;;;11.23;2.70;;;;;;;;;;5070227;28;20036;-62
2021/01/13 03:27:43;;;;;;;13.77;3.20;;;;;;;;;;5088283;28;20035;-62
2021/01/13 03:30:10;;;;;;;19.60;4.32;;;;;;;;;;5091413;28;20062;-64
2021/01/13 03:32:54;;;;;;;19.05;5.68;;;;;;;;;;5091050;28;20020;-62
2021/01/13 03:35:22;;;;;;;23.13;5.80;;;;;;;;;;5091034;28;20028;-62
2021/01/13 03:37:55;;;;;;;16.48;3.72;;;;;;;;;;5084052;28;20028;-63
2021/01/13 03:40:21;;;;;;;10.18;2.35;;;;;;;;;;5070648;28;20032;-62
2021/01/13 03:42:51;;;;;;;10.02;2.05;;;;;;;;;;5071484;28;20457;-62
2021/01/13 03:45:22;;;;;;;9.93;1.52;;;;;;;;;;5070474;28;20032;-61
2021/01/13 03:48:01;;;;;;;6.22;1.65;;;;;;;;;;5071132;28;20128;-62
2021/01/13 03:50:42;;;;;;;12.93;1.33;;;;;;;;;;5070686;28;20085;-63
2021/01/13 03:53:08;;;;;;;6.18;1.67;;;;;;;;;;5071416;28;20036;-63
2021/01/13 04:01:03;;;;;;;14.23;1.48;;;;;;;;;;5080628;22;20048;-59
2021/01/13 04:03:30;;;;;;;13.25;1.60;;;;;;;;;;5088222;28;20501;-58
2021/01/13 04:05:55;;;;;;;;;;;;;;;;;;5091102;28;20024;-59
2021/01/13 04:08:23;;;;;;;8.97;1.27;;;;;;;;;;5086666;28;20247;-57
2021/01/13 04:10:51;;;;;;;7.10;1.00;;;;;;;;;;5073607;28;20016;-58
2021/01/13 04:13:24;;;;;;;12.88;1.60;;;;;;;;;;5086775;28;20032;-58
2021/01/13 04:15:51;;;;;;;13.45;3.03;;;;;;;;;;5077488;28;20028;-58
2021/01/13 04:18:16;;;;;;;;;;;;;;;;;;5084643;28;20078;-59
2021/01/13 04:20:41;;;;;;;7.43;1.80;;;;;;;;;;5053653;28;20410;-58
2021/01/13 04:23:07;;;;;;;22.63;5.05;;;;;;;;;;5070379;28;20514;-59
2021/01/13 04:25:33;;;;;;;25.50;5.53;;;;;;;;;;5071137;28;20036;-59
2021/01/13 04:27:59;;;;;;;21.98;5.85;;;;;;;;;;5080259;28;20028;-58
2021/01/13 04:30:26;;;;;;;13.07;2.93;;;;;;;;;;5091219;28;20082;-60
2021/01/13 04:32:51;;;;;;;;;;;;;;;;;;5091487;28;20296;-58
2021/01/13 04:35:16;;;;;;;53.47;11.83;;;;;;;;;;5092034;28;19966;-59
2021/01/13 04:37:43;;;;;;;57.88;12.80;;;;;;;;;;5089736;28;20027;-58
2021/01/13 04:40:20;;;;;;;38.85;9.38;;;;;;;;;;5091943;28;20064;-59
2021/01/13 04:42:58;;;;;;;31.98;5.75;;;;;;;;;;5085364;28;20068;-58
2021/01/13 04:45:33;;;;;;;11.48;2.80;;;;;;;;;;5070980;28;20107;-59
2021/01/13 04:48:02;;;;;;;23.77;3.45;;;;;;;;;;5071737;28;20043;-58
2021/01/13 04:50:33;;;;;;;16.02;3.40;;;;;;;;;;5070397;28;20395;-59
2021/01/13 04:52:59;;;;;;;23.80;2.90;;;;;;;;;;5070672;28;20036;-58
2021/01/13 04:55:25;;;;;;;10.45;3.40;;;;;;;;;;5076024;28;20028;-59
2021/01/13 04:57:50;;;;;;;15.48;2.70;;;;;;;;;;5074929;28;20032;-59
2021/01/13 05:00:34;;;;;;;18.97;2.67;;;;;;;;;;5074794;28;20389;-60
2021/01/13 05:03:17;;;;;;;10.50;4.53;;;;;;;;;;5080860;28;20028;-59
2021/01/13 05:05:47;;;;;;;14.70;2.65;;;;;;;;;;5094791;28;20028;-59
2021/01/13 05:08:29;;;;;;;18.42;3.35;;;;;;;;;;5094952;28;20035;-59
2021/01/13 05:11:03;;;;;;;10.15;2.55;;;;;;;;;;5077226;28;20028;-58
2021/01/13 05:13:32;;;;;;;18.48;3.28;;;;;;;;;;5098573;28;20036;-61
2021/01/13 05:15:58;;;;;;;18.27;2.70;;;;;;;;;;5092637;28;20033;-58
2021/01/13 05:18:42;;;;;;;23.17;4.10;;;;;;;;;;5089406;28;20035;-59
2021/01/13 05:21:15;;;;;;;18.33;3.72;;;;;;;;;;5097756;28;20060;-58
2021/01/13 05:23:43;;;;;;;18.73;3.38;;;;;;;;;;5094506;28;20100;-58
2021/01/13 05:26:15;;;;;;;34.30;8.00;;;;;;;;;;5093381;28;20068;-58
2021/01/13 05:28:54;;;;;;;42.90;8.23;;;;;;;;;;5072338;28;20536;-58
2021/01/13 05:31:23;;;;;;;77.38;17.27;;;;;;;;;;5073288;28;20567;-58
2021/01/13 05:33:49;;;;;;;91.45;20.75;;;;;;;;;;5073772;28;20086;-58
2021/01/13 05:36:16;;;;;;;73.93;16.97;;;;;;;;;;5074043;28;20033;-59
2021/01/13 05:39:00;;;;;;;54.03;14.52;;;;;;;;;;5073442;28;20040;-58
2021/01/13 05:41:25;;;;;;;80.50;17.67;;;;;;;;;;5072879;28;20396;-58
2021/01/13 05:43:51;;;;;;;77.43;18.70;;;;;;;;;;5055596;28;20043;-58
2021/01/13 05:46:18;;;;;;;77.13;17.03;;;;;;;;;;5073606;28;20041;-58
2021/01/13 05:48:43;;;;;;;;;;;;;;;;;;5072233;28;20029;-59
2021/01/13 05:51:09;;;;;;;84.03;18.03;;;;;;;;;;5074433;28;20026;-59
2021/01/13 05:53:34;;;;;;;85.07;17.42;;;;;;;;;;5073552;28;20371;-58
2021/01/13 05:56:03;;;;;;;83.13;16.43;;;;;;;;;;5072898;28;20384;-58
2021/01/13 05:58:29;;;;;;;60.17;14.60;;;;;;;;;;5084353;28;20114;-58
2021/01/13 06:00:55;;;;;;;51.33;13.02;;;;;;;;;;5092083;28;20138;-58
2021/01/13 06:03:22;;;;;;;36.92;11.13;;;;;;;;;;5093886;28;20138;-59
2021/01/13 06:05:50;;;;;;;58.40;12.30;;;;;;;;;;5090879;28;20032;-58
2021/01/13 06:08:15;;;;;;;57.72;13.88;;;;;;;;;;5094187;28;20031;-58
2021/01/13 06:10:40;;;;;;;66.53;15.70;;;;;;;;;;5091946;28;20119;-57
2021/01/13 06:13:06;;;;;;;53.13;15.27;;;;;;;;;;5093396;28;20348;-59
2021/01/13 06:15:33;;;;;;;62.83;13.52;;;;;;;;;;5093520;28;20062;-59
2021/01/13 06:17:59;;;;;;;80.60;15.90;;;;;;;;;;5093757;28;20538;-58
2021/01/13 06:20:28;;;;;;;83.72;20.20;;;;;;;;;;5092033;28;20131;-58
2021/01/13 06:22:55;;;;;;;84.18;17.95;;;;;;;;;;5092804;28;20037;-58
2021/01/13 06:25:20;;;;;;;74.90;18.73;;;;;;;;;;5093308;28;20059;-59
2021/01/13 06:28:06;;;;;;;90.50;19.87;;;;;;;;;;5092960;28;20059;-58
2021/01/13 06:30:32;;;;;;;99.32;19.60;;;;;;;;;;5090274;28;20469;-57
2021/01/13 06:33:05;;;;;;;85.15;21.20;;;;;;;;;;5082458;28;20487;-59
2021/01/13 06:35:42;;;;;;;66.18;15.95;;;;;;;;;;5083276;28;20490;-59
2021/01/13 06:38:08;;;;;;;;;;;;;;;;;;5087537;28;20490;-58
2021/01/13 06:40:33;;;;;;;60.43;14.63;;;;;;;;;;5092599;28;19915;-59
2021/01/13 06:43:09;;;;;;;50.03;13.07;;;;;;;;;;5092562;28;20450;-58
2021/01/13 06:45:34;;;;;;;84.85;16.88;;;;;;;;;;5089349;28;20026;-58
2021/01/13 06:48:00;;;;;;;74.77;15.17;;;;;;;;;;5092469;28;20024;-58
2021/01/13 06:50:31;;;;;;;52.57;13.07;;;;;;;;;;5088570;28;20033;-58
2021/01/13 06:52:57;;;;;;;28.92;6.40;;;;;;;;;;5082198;28;20032;-59
2021/01/13 06:55:30;;;;;;;30.55;6.43;;;;;;;;;;5081575;28;20090;-59
2021/01/13 06:57:56;;;;;;;40.67;7.90;;;;;;;;;;5078386;28;20483;-59
2021/01/13 07:00:21;;;;;;;24.98;5.75;;;;;;;;;;5082764;28;20150;-59
2021/01/13 07:02:47;;;;;;;30.40;6.30;;;;;;;;;;5071281;28;20120;-59
2021/01/13 07:05:31;;;;;;;56.10;12.87;;;;;;;;;;5073924;28;20468;-58
2021/01/13 07:07:56;;;;;;;64.10;13.15;;;;;;;;;;5071744;28;20029;-58
2021/01/13 07:10:22;;;;;;;41.93;10.03;;;;;;;;;;5074816;28;20026;-58
2021/01/13 07:12:48;;;;;;;42.88;11.00;;;;;;;;;;5074105;28;20073;-59
2021/01/13 07:15:14;;;;;;;48.25;10.80;;;;;;;;;;5074380;28;20077;-59
2021/01/13 07:17:39;;;;;;;43.97;10.23;;;;;;;;;;5073158;28;20103;-59
2021/01/13 07:20:05;;;;;;;48.87;9.97;;;;;;;;;;5038202;28;20472;-59
2021/01/13 07:22:30;;;;;;;20.13;3.70;;;;;;;;;;5089264;28;20039;-59
2021/01/13 07:24:56;;;;;;;15.13;2.97;;;;;;;;;;5090308;28;20296;-58
2021/01/13 07:27:21;;;;;;;16.73;3.80;;;;;;;;;;5075054;28;20257;-57
2021/01/13 07:29:47;;;;;;;30.13;5.70;;;;;;;;;;5071762;28;20437;-59
2021/01/13 07:32:13;;;;;;;11.45;3.83;;;;;;;;;;5077594;28;20104;-58
2021/01/13 07:34:42;;;;;;;14.23;3.23;;;;;;;;;;5072117;28;20377;-60
2021/01/13 07:37:19;;;;;;;22.88;3.65;;;;;;;;;;5078628;28;20352;-57
2021/01/13 07:39:45;;;;;;;21.08;4.57;;;;;;;;;;5082247;28;20131;-58
2021/01/13 07:42:36;;;;;;;18.83;5.17;;;;;;;;;;5063993;28;20110;-59
2021/01/13 07:45:06;;;;;;;29.65;5.28;;;;;;;;;;5082087;28;20058;-58
2021/01/13 07:47:52;;;;;;;19.67;4.55;;;;;;;;;;5078715;28;20028;-58
2021/01/13 07:50:18;;;;;;;23.95;3.45;;;;;;;;;;5041470;28;20124;-58
2021/01/13 07:52:47;;;;;;;17.13;3.03;;;;;;;;;;5091479;28;20107;-58
2021/01/13 07:55:20;;;;;;;15.18;2.70;;;;;;;;;;5092029;28;20111;-58
2021/01/13 07:57:47;;;;;;;13.80;2.50;;;;;;;;;;5091823;28;20052;-59
2021/01/13 08:00:23;;;;;;;12.40;2.60;;;;;;;;;;5094446;28;20075;-59
2021/01/13 08:03:13;;;;;;;12.63;2.97;;;;;;;;;;5084849;28;20043;-57
2021/01/13 08:06:11;;;;;;;18.08;2.80;;;;;;;;;;5090138;28;20036;-58
2021/01/13 08:08:45;;;;;;;15.45;3.05;;;;;;;;;;5048847;28;20561;-59
2021/01/13 08:11:20;;;;;;;16.95;2.92;;;;;;;;;;5080191;28;20028;-60
2021/01/13 08:14:00;;;;;;;13.65;2.95;;;;;;;;;;5082008;28;20053;-60
2021/01/13 08:16:36;;;;;;;7.93;2.20;;;;;;;;;;5082519;28;20036;-58
2021/01/13 08:19:15;;;;;;;14.00;3.70;;;;;;;;;;5078450;28;20080;-58
2021/01/13 08:21:48;;;;;;;9.40;3.13;;;;;;;;;;5081647;28;20090;-59
2021/01/13 08:24:29;;;;;;;9.20;2.25;;;;;;;;;;5078470;28;20033;-57
2021/01/13 08:26:59;;;;;;;8.40;3.40;;;;;;;;;;5070910;28;20029;-57
2021/01/13 08:29:27;;;;;;;18.02;2.47;;;;;;;;;;5076657;28;20093;-59
2021/01/13 08:32:05;;;;;;;14.50;2.80;;;;;;;;;;5072958;28;20383;-58
2021/01/13 08:34:44;;;;;;;11.05;2.45;;;;;;;;;;5074559;28;20024;-58
2021/01/13 08:37:10;;;;;;;15.18;2.90;;;;;;;;;;5077134;28;20478;-57
2021/01/13 08:39:39;;;;;;;7.05;1.98;;;;;;;;;;5081280;28;20025;-58
2021/01/13 08:42:24;;;;;;;19.00;3.35;;;;;;;;;;5088178;28;20612;-59
2021/01/13 08:44:50;;;;;;;10.57;2.42;;;;;;;;;;5094223;28;20053;-58
2021/01/13 08:47:16;;;;;;;11.17;3.00;;;;;;;;;;5083820;28;20430;-59
2021/01/13 08:49:42;;;;;;;19.17;3.27;;;;;;;;;;5074572;28;20257;-59
2021/01/13 08:52:13;;;;;;;12.52;2.67;;;;;;;;;;5074897;28;20025;-59
2021/01/13 08:55:00;;;;;;;18.50;2.60;;;;;;;;;;5073866;28;20514;-58
2021/01/13 08:57:26;;;;;;;19.75;3.03;;;;;;;;;;5076917;28;20048;-59
2021/01/13 08:59:54;;;;;;;12.85;2.70;;;;;;;;;;5094279;28;20036;-58
2021/01/13 09:02:20;;;;;;;18.05;2.60;;;;;;;;;;5075122;28;20082;-58
2021/01/13 09:04:47;;;;;;;14.25;3.10;;;;;;;;;;5077224;28;20119;-58
2021/01/13 09:07:13;;;;;;;12.75;3.17;;;;;;;;;;5074712;28;20428;-59
2021/01/13 09:09:42;;;;;;;14.80;3.47;;;;;;;;;;5091425;28;20031;-58
2021/01/13 09:12:26;;;;;;;23.92;3.72;;;;;;;;;;5093227;28;20032;-59
2021/01/13 09:15:09;;;;;;;11.40;2.55;;;;;;;;;;5093070;28;20028;-58
2021/01/13 09:17:36;;;;;;;10.85;3.15;;;;;;;;;;5094391;28;20031;-58
2021/01/13 09:20:01;;;;;;;;;;;;;;;;;;5087900;28;20087;-59
2021/01/13 09:22:39;;;;;;;10.50;3.50;;;;;;;;;;5074802;28;20455;-58
2021/01/13 09:25:06;;;;;;;7.63;2.60;;;;;;;;;;5092940;28;20847;-59
2021/01/13 09:27:35;;;;;;;14.57;2.50;;;;;;;;;;5088808;28;20028;-60
2021/01/13 09:30:07;;;;;;;9.50;2.15;;;;;;;;;;5094607;28;20028;-61
2021/01/13 09:32:49;;;;;;;15.98;2.95;;;;;;;;;;5096163;28;20566;-58
2021/01/13 09:35:35;;;;;;;13.10;2.58;;;;;;;;;;5088551;28;20028;-59
2021/01/13 09:38:05;;;;;;;8.35;2.72;;;;;;;;;;5056529;28;20028;-58
2021/01/13 09:40:55;;;;;;;9.88;2.22;;;;;;;;;;5074477;28;20056;-58
2021/01/13 09:43:26;;;;;;;10.00;2.47;;;;;;;;;;5074277;28;20527;-58
2021/01/13 09:45:53;;;;;;;9.35;2.83;;;;;;;;;;5073986;28;20049;-59
2021/01/13 09:48:18;;;;;;;10.10;3.13;;;;;;;;;;5072682;28;20460;-59
2021/01/13 09:50:44;;;;;;;6.18;2.55;;;;;;;;;;5082083;28;20038;-58
2021/01/13 09:53:13;;;;;;;11.55;2.90;;;;;;;;;;5093267;28;20024;-58
2021/01/13 09:55:39;;;;;;;10.77;2.45;;;;;;;;;;5094387;28;20059;-60
2021/01/13 09:58:27;;;;;;;11.27;2.80;;;;;;;;;;5093803;28;20103;-59
2021/01/13 10:00:55;;;;;;;10.40;3.00;;;;;;;;;;5092956;28;20467;-59
2021/01/13 10:03:28;;;;;;;17.13;3.00;;;;;;;;;;5093872;28;20467;-60
2021/01/13 10:05:55;;;;;;;16.30;2.53;;;;;;;;;;5093573;28;20036;-60
2021/01/13 10:08:28;;;;;;;10.17;2.93;;;;;;;;;;5092531;28;20020;-59
2021/01/13 10:10:55;;;;;;;11.57;3.17;;;;;;;;;;5087181;28;20280;-59
2021/01/13 10:13:21;;;;;;;10.63;2.40;;;;;;;;;;5085229;28;20735;-62
2021/01/13 10:15:48;;;;;;;10.25;2.10;;;;;;;;;;5083282;28;20257;-59
2021/01/13 10:18:13;;;;;;;16.33;3.30;;;;;;;;;;5083731;28;20132;-60
2021/01/13 10:20:38;;;;;;;20.17;4.00;;;;;;;;;;5093495;28;20380;-60
2021/01/13 10:23:06;;;;;;;12.23;3.80;;;;;;;;;;5092201;28;20483;-59
2021/01/13 10:25:33;;;;;;;12.97;2.50;;;;;;;;;;5093305;28;20332;-59
2021/01/13 10:27:59;;;;;;;8.43;2.67;;;;;;;;;;5092827;28;20269;-59
2021/01/13 10:30:25;;;;;;;15.65;2.50;;;;;;;;;;5093278;28;20268;-60
2021/01/13 10:32:51;;;;;;;8.98;2.70;;;;;;;;;;5092345;28;20455;-58
2021/01/13 10:35:17;;;;;;;10.52;2.78;;;;;;;;;;5073010;28;20111;-60
2021/01/13 10:37:54;;;;;;;7.47;2.67;;;;;;;;;;5072899;28;20032;-58
2021/01/13 10:40:20;;;;;;;17.13;3.30;;;;;;;;;;5073059;28;20037;-59
2021/01/13 10:42:48;;;;;;;15.17;3.60;;;;;;;;;;5072789;28;20067;-59
2021/01/13 10:45:14;;;;;;;17.13;4.67;;;;;;;;;;5075286;28;20311;-59
2021/01/13 10:47:44;;;;;;;16.42;3.85;;;;;;;;;;5075802;28;20269;-58
2021/01/13 10:50:10;;;;;;;11.10;2.77;;;;;;;;;;5093902;28;20040;-59
2021/01/13 10:52:36;;;;;;;6.97;2.47;;;;;;;;;;5092577;28;20785;-59
2021/01/13 10:55:01;;;;;;;10.90;3.25;;;;;;;;;;5092785;28;20036;-59
2021/01/13 10:57:31;;;;;;;16.77;4.07;;;;;;;;;;5091741;28;20360;-60
2021/01/13 11:00:07;;;;;;;14.07;3.77;;;;;;;;;;5092366;28;20028;-58
2021/01/13 11:02:32;;;;;;;9.73;3.23;;;;;;;;;;5097248;28;20295;-60
2021/01/13 11:04:59;;;;;;;11.67;4.27;;;;;;;;;;5092767;28;20273;-59
2021/01/13 11:07:25;;;;;;;14.73;3.80;;;;;;;;;;5092536;28;20115;-58
2021/01/13 11:09:51;;;;;;;16.00;3.63;;;;;;;;;;5092558;28;20349;-58
2021/01/13 11:12:21;;;;;;;9.55;2.75;;;;;;;;;;5091592;28;20491;-59
2021/01/13 11:14:48;;;;;;;26.13;5.97;;;;;;;;;;5092481;28;20475;-59
2021/01/13 11:17:15;;;;;;;25.30;8.47;;;;;;;;;;5091987;28;20286;-59
2021/01/13 11:19:42;;;;;;;27.80;8.63;;;;;;;;;;5092383;28;20292;-60
2021/01/13 11:22:08;;;;;;;46.33;12.53;;;;;;;;;;5091806;28;20032;-60
2021/01/13 11:24:33;;;;;;;35.15;9.98;;;;;;;;;;5092725;28;20252;-59
2021/01/13 11:27:00;;;;;;;40.83;10.23;;;;;;;;;;5092790;28;20062;-59
2021/01/13 11:29:30;;;;;;;33.00;8.10;;;;;;;;;;5092948;28;20028;-59
2021/01/13 11:31:56;;;;;;;40.33;11.13;;;;;;;;;;5091874;28;20502;-57
2021/01/13 11:34:21;;;;;;;42.17;10.48;;;;;;;;;;5092960;28;20036;-60
2021/01/13 11:36:52;;;;;;;26.65;8.15;;;;;;;;;;5092569;28;20452;-59
2021/01/13 11:39:23;;;;;;;31.15;9.35;;;;;;;;;;5091744;28;20074;-59
2021/01/13 11:41:58;;;;;;;25.55;6.80;;;;;;;;;;5088066;28;20058;-58
2021/01/13 11:44:35;;;;;;;32.05;8.30;;;;;;;;;;5076796;28;20043;-59
2021/01/13 11:47:08;;;;;;;39.28;11.38;;;;;;;;;;5078995;28;20510;-59
2021/01/13 11:49:34;;;;;;;19.77;5.63;;;;;;;;;;5081863;28;20024;-59
2021/01/13 11:51:59;;;;;;;39.57;8.20;;;;;;;;;;5083226;28;20111;-60
2021/01/13 11:54:25;;;;;;;28.55;7.07;;;;;;;;;;5092308;28;20145;-59
2021/01/13 11:56:50;;;;;;;24.83;7.83;;;;;;;;;;5092095;28;20024;-58
2021/01/13 11:59:29;;;;;;;17.90;5.07;;;;;;;;;;5086222;28;20345;-58
2021/01/13 12:01:59;;;;;;;15.43;3.85;;;;;;;;;;5076762;28;20512;-59
2021/01/13 12:04:24;;;;;;;11.48;2.42;;;;;;;;;;5074800;28;20032;-58
2021/01/13 12:06:59;;;;;;;11.25;2.60;;;;;;;;;;5076017;28;20047;-59
2021/01/13 12:09:25;;;;;;;8.90;2.60;;;;;;;;;;5063140;28;20045;-58
2021/01/13 12:11:50;;;;;;;14.43;2.40;;;;;;;;;;5084779;28;20028;-58
2021/01/13 12:14:16;;;;;;;8.73;1.70;;;;;;;;;;5085723;28;20035;-58
2021/01/13 12:16:41;;;;;;;5.87;1.90;;;;;;;;;;5083806;28;20032;-58
2021/01/13 12:19:07;;;;;;;11.07;2.60;;;;;;;;;;5083047;28;20548;-58
2021/01/13 12:21:33;;;;;;;7.70;1.90;;;;;;;;;;5081953;28;20039;-58
2021/01/13 12:24:11;;;;;;;15.98;3.25;;;;;;;;;;5080721;28;20507;-59
2021/01/13 12:26:38;;;;;;;10.23;2.80;;;;;;;;;;5084135;28;20028;-59
2021/01/13 12:29:03;;;;;;;16.40;2.60;;;;;;;;;;5074270;28;20035;-59
2021/01/13 12:31:36;;;;;;;10.53;2.50;;;;;;;;;;5075200;28;20265;-59
2021/01/13 12:34:02;;;;;;;8.47;2.43;;;;;;;;;;5077937;28;20052;-59
2021/01/13 12:36:29;;;;;;;13.35;2.08;;;;;;;;;;5078863;28;20246;-58
2021/01/13 12:38:55;;;;;;;10.00;2.90;;;;;;;;;;5075407;28;20035;-59
2021/01/13 12:41:22;;;;;;;9.30;1.95;;;;;;;;;;5075098;28;20265;-58
2021/01/13 12:43:48;;;;;;;9.90;1.80;;;;;;;;;;5075163;28;20032;-58
2021/01/13 12:46:22;;;;;;;17.93;3.40;;;;;;;;;;5074271;28;20619;-60
2021/01/13 12:48:48;;;;;;;10.30;1.93;;;;;;;;;;5075244;28;20468;-59
2021/01/13 12:51:13;;;;;;;11.50;2.03;;;;;;;;;;5073525;28;20043;-58
2021/01/13 12:53:38;;;;;;;6.50;2.10;;;;;;;;;;5074583;28;20483;-59
2021/01/13 12:56:04;;;;;;;8.00;1.90;;;;;;;;;;5074754;28;20067;-58
2021/01/13 12:58:29;;;;;;;5.95;1.67;;;;;;;;;;5074860;28;20037;-61
2021/01/13 13:00:54;;;;;;;11.33;1.97;;;;;;;;;;5074455;28;20060;-59
2021/01/13 13:03:20;;;;;;;14.63;3.57;;;;;;;;;;5080344;28;20278;-59
2021/01/13 13:05:45;;;;;;;8.43;1.63;;;;;;;;;;5086586;28;20067;-59
2021/01/13 13:08:11;;;;;;;8.43;1.98;;;;;;;;;;5082846;28;20470;-58
2021/01/13 13:10:37;;;;;;;7.90;1.33;;;;;;;;;;5094952;28;20036;-59
2021/01/13 13:13:02;;;;;;;7.50;1.87;;;;;;;;;;5094250;28;20028;-58
2021/01/13 13:15:27;;;;;;;12.13;2.03;;;;;;;;;;5094097;28;20028;-59
2021/01/13 13:17:52;;;;;;;15.80;2.00;;;;;;;;;;5089954;28;20467;-59
2021/01/13 13:20:18;;;;;;;11.00;1.90;;;;;;;;;;5093137;28;20059;-59
2021/01/13 13:22:43;;;;;;;6.60;1.93;;;;;;;;;;5094591;28;20024;-58
2021/01/13 13:25:09;;;;;;;10.90;1.80;;;;;;;;;;5093144;28;20031;-58
2021/01/13 13:27:35;;;;;;;6.47;1.57;;;;;;;;;;5095136;28;20032;-58
2021/01/13 13:30:01;;;;;;;6.72;2.03;;;;;;;;;;5075815;28;20276;-59
2021/01/13 13:32:26;;;;;;;12.77;2.08;;;;;;;;;;5094900;28;20034;-59
2021/01/13 13:34:52;;;;;;;12.97;2.23;;;;;;;;;;5094682;28;20031;-59
2021/01/13 13:37:17;;;;;;;10.17;1.83;;;;;;;;;;5093769;28;20032;-60
2021/01/13 13:39:42;;;;;;;10.07;2.60;;;;;;;;;;5094408;28;20145;-59
2021/01/13 13:42:08;;;;;;;8.80;1.97;;;;;;;;;;5094090;28;20473;-58
2021/01/13 13:44:33;;;;;;;7.50;1.90;;;;;;;;;;5094030;28;20588;-59
2021/01/13 13:46:58;;;;;;;9.00;2.13;;;;;;;;;;5093649;28;20035;-56
2021/01/13 13:49:24;;;;;;;9.67;3.13;;;;;;;;;;5089645;28;20032;-58
2021/01/13 13:51:50;;;;;;;10.13;2.88;;;;;;;;;;5085443;28;20021;-59
2021/01/13 13:54:15;;;;;;;8.57;1.90;;;;;;;;;;5081990;28;20392;-59
2021/01/13 13:56:40;;;;;;;9.60;2.00;;;;;;;;;;5084064;28;20031;-59
2021/01/13 13:59:06;;;;;;;8.03;1.90;;;;;;;;;;5082942;28;20025;-58
2021/01/13 14:01:31;;;;;;;6.73;2.27;;;;;;;;;;5066463;28;20084;-58
2021/01/13 14:03:57;;;;;;;7.25;1.67;;;;;;;;;;5084349;28;20028;-58
2021/01/13 14:06:24;;;;;;;5.70;1.73;;;;;;;;;;5089381;28;20062;-57
2021/01/13 14:08:49;;;;;;;4.32;1.48;;;;;;;;;;5086540;28;20028;-59
2021/01/13 14:11:14;;;;;;;5.53;1.70;;;;;;;;;;5081335;28;20398;-58
2021/01/13 14:13:40;;;;;;;5.70;1.63;;;;;;;;;;5081587;28;20025;-59
2021/01/13 14:16:05;;;;;;;4.50;1.50;;;;;;;;;;5082263;28;20020;-58
2021/01/13 14:18:31;;;;;;;11.63;2.13;;;;;;;;;;5084614;28;20467;-60
2021/01/13 14:20:56;;;;;;;4.77;1.50;;;;;;;;;;5083462;28;20119;-57
2021/01/13 14:23:21;;;;;;;10.73;1.60;;;;;;;;;;5085187;28;20024;-58
2021/01/13 14:25:47;;;;;;;9.43;1.43;;;;;;;;;;5080885;28;20528;-58
2021/01/13 14:28:12;;;;;;;9.90;2.00;;;;;;;;;;5075012;28;20025;-58
2021/01/13 14:30:37;;;;;;;6.90;1.83;;;;;;;;;;5071547;28;20047;-59
2021/01/13 14:33:03;;;;;;;12.63;2.10;;;;;;;;;;5074763;28;20052;-58
2021/01/13 14:35:28;;;;;;;7.20;1.50;;;;;;;;;;5083833;28;20032;-57
2021/01/13 14:37:53;;;;;;;14.80;2.80;;;;;;;;;;5083714;28;20107;-59
2021/01/13 14:40:19;;;;;;;8.17;1.70;;;;;;;;;;5080072;28;20067;-59
2021/01/13 14:42:44;;;;;;;8.53;2.30;;;;;;;;;;5085496;28;20023;-59
2021/01/13 14:45:10;;;;;;;10.60;2.03;;;;;;;;;;5083133;28;20416;-58
2021/01/13 14:47:36;;;;;;;9.13;1.63;;;;;;;;;;5084459;28;20016;-58